Time;durP1;ratioP1;P1;durP2;ratioP2;P2;SDS_P1;SDS_P2;PMS_P1;PMS_P2;Temp;Humidity;BMP_temperature;BMP_pressure;BME280_temperature;BME280_humidity;BME280_pressure;Samples;Min_cycle;Max_cycle;Signal;HPM_P1;HPM_P2
2023/10/23 00:01:38;;;;;;;10.13;2.70;;;24.40;99.90;;;;;;5059196;23;20048;-54
2023/10/23 00:04:06;;;;;;;8.88;2.47;;;24.40;99.90;;;;;;5047535;28;20381;-54
2023/10/23 00:06:32;;;;;;;7.75;2.33;;;24.40;99.90;;;;;;5065974;28;20048;-54
2023/10/23 00:08:58;;;;;;;6.22;2.50;;;24.40;99.90;;;;;;5070660;28;20099;-54
2023/10/23 00:11:28;;;;;;;6.53;2.15;;;24.40;99.90;;;;;;5070192;28;20028;-54
2023/10/23 00:13:55;;;;;;;8.80;2.70;;;24.30;99.90;;;;;;5070657;28;20032;-53
2023/10/23 00:16:21;;;;;;;8.85;2.05;;;24.40;99.90;;;;;;5070845;28;20047;-54
2023/10/23 00:18:48;;;;;;;5.25;2.17;;;24.40;99.90;;;;;;5070876;28;20021;-53
2023/10/23 00:21:14;;;;;;;7.60;2.38;;;24.30;99.90;;;;;;5070036;28;20056;-52
2023/10/23 00:23:40;;;;;;;13.00;2.55;;;24.30;99.90;;;;;;5070283;28;20111;-52
2023/10/23 00:26:06;;;;;;;8.15;2.22;;;24.30;99.90;;;;;;5070056;28;20112;-52
2023/10/23 00:28:33;;;;;;;7.18;2.55;;;24.30;99.90;;;;;;5070890;28;20051;-53
2023/10/23 00:30:59;;;;;;;6.50;2.20;;;24.30;99.90;;;;;;5052116;28;20055;-52
2023/10/23 00:33:26;;;;;;;7.85;2.22;;;24.30;99.90;;;;;;5070321;28;20380;-52
2023/10/23 00:35:52;;;;;;;4.93;2.33;;;24.30;99.90;;;;;;5070299;28;20646;-53
2023/10/23 00:38:18;;;;;;;5.60;2.20;;;24.30;99.90;;;;;;5070032;28;20107;-54
2023/10/23 00:40:43;;;;;;;5.15;2.00;;;24.30;99.90;;;;;;5070710;28;20074;-52
2023/10/23 00:43:24;;;;;;;9.27;2.72;;;24.30;99.90;;;;;;5069355;28;20024;-54
2023/10/23 00:45:56;;;;;;;7.18;2.50;;;24.30;99.90;;;;;;5052066;28;20024;-52
2023/10/23 00:48:23;;;;;;;8.32;2.83;;;24.30;99.90;;;;;;5047541;28;20502;-52
2023/10/23 00:50:51;;;;;;;7.35;2.00;;;24.30;99.90;;;;;;5069701;28;20468;-53
2023/10/23 00:53:18;;;;;;;9.55;2.30;;;24.30;99.90;;;;;;5069923;28;20461;-53
2023/10/23 00:55:45;;;;;;;3.63;1.77;;;24.30;99.90;;;;;;5068421;28;20020;-53
2023/10/23 00:58:13;;;;;;;7.15;2.70;;;24.30;99.90;;;;;;5034012;28;20052;-54
2023/10/23 01:00:39;;;;;;;8.02;2.50;;;24.30;99.90;;;;;;5069847;22;20017;-46
2023/10/23 01:03:06;;;;;;;10.13;2.40;;;24.30;99.90;;;;;;5012324;28;20033;-45
2023/10/23 01:05:31;;;;;;;6.87;2.60;;;24.30;99.90;;;;;;5022032;28;20041;-45
2023/10/23 01:07:57;;;;;;;3.80;1.88;;;24.30;99.90;;;;;;5015395;28;20272;-45
2023/10/23 01:10:23;;;;;;;5.53;1.92;;;24.30;99.90;;;;;;5028589;28;20042;-45
2023/10/23 01:12:52;;;;;;;6.28;2.17;;;24.30;99.90;;;;;;5027422;28;20037;-45
2023/10/23 01:15:17;;;;;;;8.25;2.63;;;24.40;99.90;;;;;;5019467;28;20536;-45
2023/10/23 01:17:43;;;;;;;4.70;2.10;;;24.30;99.90;;;;;;5004782;28;20021;-46
2023/10/23 01:20:12;;;;;;;10.07;2.13;;;24.30;99.90;;;;;;5018944;28;20022;-46
2023/10/23 01:22:38;;;;;;;5.78;2.15;;;24.30;99.90;;;;;;4999675;28;20424;-46
2023/10/23 01:25:13;;;;;;;8.07;2.00;;;24.40;99.90;;;;;;5012073;28;20014;-46
2023/10/23 01:27:39;;;;;;;5.15;1.92;;;24.40;99.90;;;;;;4995426;28;20508;-46
2023/10/23 01:30:05;;;;;;;6.28;2.20;;;24.40;99.90;;;;;;5019483;28;20034;-46
2023/10/23 01:32:31;;;;;;;4.72;2.10;;;24.40;99.90;;;;;;4996884;28;20030;-45
2023/10/23 01:34:57;;;;;;;5.80;2.00;;;24.40;99.90;;;;;;4996649;28;20172;-46
2023/10/23 01:37:23;;;;;;;5.85;2.10;;;24.40;99.90;;;;;;5019507;28;20037;-45
2023/10/23 01:39:48;;;;;;;6.40;1.92;;;24.40;99.90;;;;;;5023624;28;20131;-45
2023/10/23 01:42:14;;;;;;;4.88;2.30;;;24.40;99.90;;;;;;5013615;28;20029;-45
2023/10/23 01:44:40;;;;;;;5.35;1.83;;;24.40;99.90;;;;;;5012738;28;20025;-45
2023/10/23 01:47:06;;;;;;;6.30;2.35;;;24.40;99.90;;;;;;5013697;28;20121;-45
2023/10/23 01:49:31;;;;;;;8.18;2.28;;;24.40;99.90;;;;;;5007853;28;20026;-45
2023/10/23 01:51:57;;;;;;;7.65;2.83;;;24.40;99.90;;;;;;5020346;28;20038;-45
2023/10/23 01:54:23;;;;;;;8.10;2.33;;;24.40;99.90;;;;;;5011064;28;20024;-47
2023/10/23 01:56:49;;;;;;;6.68;2.05;;;24.40;99.90;;;;;;5020238;28;20524;-46
2023/10/23 01:59:14;;;;;;;5.95;2.00;;;24.30;99.90;;;;;;5024945;28;20041;-45
2023/10/23 02:01:40;;;;;;;7.78;2.40;;;24.30;99.90;;;;;;5058977;23;20045;-53
2023/10/23 02:04:07;;;;;;;5.70;1.65;;;24.30;99.90;;;;;;5069082;28;20499;-53
2023/10/23 02:06:33;;;;;;;5.28;1.85;;;24.40;99.90;;;;;;5069337;28;20044;-53
2023/10/23 02:08:59;;;;;;;7.40;1.85;;;24.30;99.90;;;;;;5069578;28;20519;-54
2023/10/23 02:11:25;;;;;;;6.72;2.00;;;24.30;99.90;;;;;;5070600;28;20354;-53
2023/10/23 02:13:51;;;;;;;11.05;1.88;;;24.30;99.90;;;;;;5072139;28;20123;-53
2023/10/23 02:16:17;;;;;;;10.02;1.95;;;24.30;99.90;;;;;;5073161;28;20348;-53
2023/10/23 02:18:43;;;;;;;7.00;2.17;;;24.30;99.90;;;;;;5055005;28;20484;-53
2023/10/23 02:21:09;;;;;;;10.50;1.98;;;24.30;99.90;;;;;;5073029;28;20529;-54
2023/10/23 02:23:35;;;;;;;8.43;3.03;;;24.30;99.90;;;;;;5072987;28;20032;-54
2023/10/23 02:26:01;;;;;;;9.18;1.98;;;24.30;99.90;;;;;;5074720;28;20540;-53
2023/10/23 02:28:27;;;;;;;8.32;2.25;;;24.30;99.90;;;;;;5075054;28;20052;-53
2023/10/23 02:30:52;;;;;;;5.07;1.80;;;24.30;99.90;;;;;;5075011;28;20358;-54
2023/10/23 02:33:18;;;;;;;9.80;1.77;;;24.30;99.90;;;;;;5074977;28;20086;-54
2023/10/23 02:35:44;;;;;;;4.68;2.03;;;24.30;99.90;;;;;;5074878;28;20438;-53
2023/10/23 02:38:10;;;;;;;6.05;1.75;;;24.30;99.90;;;;;;5074969;28;20026;-53
2023/10/23 02:40:35;;;;;;;5.72;1.50;;;24.30;99.90;;;;;;5074939;28;20033;-53
2023/10/23 02:43:01;;;;;;;4.60;1.65;;;24.30;99.90;;;;;;5075055;28;20031;-53
2023/10/23 02:45:27;;;;;;;5.53;2.03;;;24.20;99.90;;;;;;5074697;28;20021;-54
2023/10/23 02:47:53;;;;;;;6.20;1.85;;;24.30;99.90;;;;;;5074585;28;20471;-53
2023/10/23 02:50:20;;;;;;;5.35;2.05;;;24.20;99.90;;;;;;5074656;28;20021;-53
2023/10/23 02:52:46;;;;;;;4.15;1.60;;;24.20;99.90;;;;;;5074595;28;20165;-53
2023/10/23 02:55:11;;;;;;;3.97;1.55;;;24.20;99.90;;;;;;5074728;28;20528;-54
2023/10/23 02:57:37;;;;;;;4.78;1.70;;;24.20;99.90;;;;;;5074579;28;20380;-53
2023/10/23 03:00:05;;;;;;;4.13;1.80;;;24.20;99.90;;;;;;5056842;28;20020;-53
2023/10/23 03:02:33;;;;;;;6.47;1.90;;;24.20;99.90;;;;;;5074940;28;20044;-54
2023/10/23 03:04:58;;;;;;;3.42;2.15;;;24.20;99.90;;;;;;5074368;28;20019;-53
2023/10/23 03:07:26;;;;;;;;;;;24.20;99.90;;;;;;5074844;28;20117;-54
2023/10/23 03:09:52;;;;;;;6.55;1.75;;;24.20;99.90;;;;;;5074254;28;20375;-53
2023/10/23 03:12:17;;;;;;;7.10;1.90;;;24.20;99.90;;;;;;5074080;28;20476;-54
2023/10/23 03:14:43;;;;;;;7.07;1.65;;;24.20;99.90;;;;;;5074195;28;20025;-54
2023/10/23 03:17:09;;;;;;;5.47;1.77;;;24.20;99.90;;;;;;5074013;28;20027;-53
2023/10/23 03:19:35;;;;;;;4.10;1.95;;;24.20;99.90;;;;;;5074216;28;20025;-53
2023/10/23 03:22:00;;;;;;;4.78;1.48;;;24.20;99.90;;;;;;5073513;28;20081;-53
2023/10/23 03:24:26;;;;;;;5.55;1.60;;;24.10;99.90;;;;;;5074091;28;20021;-53
2023/10/23 03:26:52;;;;;;;8.20;1.73;;;24.20;99.90;;;;;;5074018;28;20484;-53
2023/10/23 03:29:18;;;;;;;4.13;1.52;;;24.20;99.90;;;;;;5073879;28;20020;-53
2023/10/23 03:31:43;;;;;;;5.85;1.67;;;24.20;99.90;;;;;;5055817;28;20085;-54
2023/10/23 03:34:09;;;;;;;5.63;1.60;;;24.20;99.90;;;;;;5073878;28;20376;-54
2023/10/23 03:36:35;;;;;;;3.95;1.92;;;24.10;99.90;;;;;;5074023;28;20028;-53
2023/10/23 03:39:01;;;;;;;5.38;1.90;;;24.10;99.90;;;;;;5073830;28;20016;-54
2023/10/23 03:41:27;;;;;;;5.82;1.67;;;24.10;99.90;;;;;;5073601;28;20415;-53
2023/10/23 03:43:52;;;;;;;3.78;1.60;;;24.10;99.90;;;;;;5073636;28;20052;-54
2023/10/23 03:46:18;;;;;;;4.28;1.75;;;24.10;99.90;;;;;;5073513;28;20021;-53
2023/10/23 03:48:44;;;;;;;8.45;1.90;;;24.10;99.90;;;;;;5073477;28;20143;-53
2023/10/23 03:51:10;;;;;;;5.90;1.98;;;24.10;99.90;;;;;;5069585;28;20028;-54
2023/10/23 03:53:35;;;;;;;5.43;1.58;;;24.10;99.90;;;;;;5053929;28;20244;-53
2023/10/23 03:56:06;;;;;;;3.05;1.52;;;24.20;99.90;;;;;;5051184;28;20021;-53
2023/10/23 03:58:32;;;;;;;3.78;1.45;;;24.10;99.90;;;;;;5052627;28;20468;-54
2023/10/23 04:00:57;;;;;;;5.57;1.67;;;24.10;99.90;;;;;;5053941;28;20053;-53
2023/10/23 04:03:24;;;;;;;6.55;1.70;;;24.10;99.90;;;;;;5052397;28;20434;-53
2023/10/23 04:05:50;;;;;;;3.13;1.60;;;24.10;99.90;;;;;;5051009;28;20113;-53
2023/10/23 04:08:15;;;;;;;6.07;1.83;;;24.10;99.90;;;;;;5050965;28;20150;-53
2023/10/23 04:10:48;;;;;;;7.32;1.58;;;24.10;99.90;;;;;;5051095;28;20066;-54
2023/10/23 04:13:15;;;;;;;8.68;2.08;;;24.10;99.90;;;;;;5050760;28;20055;-54
2023/10/23 04:15:50;;;;;;;4.43;1.63;;;24.10;99.90;;;;;;5049788;28;20025;-53
2023/10/23 04:18:16;;;;;;;3.72;1.35;;;24.10;99.90;;;;;;5050752;28;20032;-53
2023/10/23 04:20:42;;;;;;;5.05;1.80;;;24.10;99.90;;;;;;5051261;28;20491;-54
2023/10/23 04:23:08;;;;;;;4.57;1.52;;;24.10;99.90;;;;;;5053111;28;20443;-53
2023/10/23 04:25:33;;;;;;;3.40;1.52;;;24.10;99.90;;;;;;5052907;28;20033;-53
2023/10/23 04:27:59;;;;;;;4.47;1.40;;;24.10;99.90;;;;;;5052669;28;20100;-54
2023/10/23 04:30:25;;;;;;;4.30;1.70;;;24.10;99.90;;;;;;5052634;28;20473;-55
2023/10/23 04:32:51;;;;;;;7.40;1.40;;;24.10;99.90;;;;;;5052475;28;20028;-54
2023/10/23 04:35:16;;;;;;;5.70;1.60;;;24.10;99.90;;;;;;5051920;28;20100;-53
2023/10/23 04:37:42;;;;;;;6.75;1.88;;;24.10;99.90;;;;;;5052442;28;20487;-55
2023/10/23 04:40:08;;;;;;;4.15;2.10;;;24.10;99.90;;;;;;5051635;28;20108;-55
2023/10/23 04:42:34;;;;;;;4.75;1.55;;;24.10;99.90;;;;;;5052637;28;20033;-54
2023/10/23 04:45:00;;;;;;;4.20;1.40;;;24.10;99.90;;;;;;5052639;28;20031;-54
2023/10/23 04:47:26;;;;;;;4.20;1.75;;;24.10;99.90;;;;;;5052521;28;20036;-53
2023/10/23 04:49:51;;;;;;;4.43;1.65;;;24.10;99.90;;;;;;5052509;28;20021;-59
2023/10/23 04:52:18;;;;;;;5.28;2.05;;;24.10;99.90;;;;;;5052169;28;20036;-54
2023/10/23 04:54:44;;;;;;;3.33;1.55;;;24.10;99.90;;;;;;5052351;28;20017;-54
2023/10/23 04:57:09;;;;;;;4.45;1.95;;;24.10;99.90;;;;;;5034571;28;20369;-53
2023/10/23 04:59:35;;;;;;;6.10;2.20;;;24.10;99.90;;;;;;5051034;28;20161;-53
2023/10/23 05:02:02;;;;;;;3.88;1.50;;;24.10;99.90;;;;;;5052623;28;20055;-53
2023/10/23 05:04:32;;;;;;;3.25;1.85;;;24.10;99.90;;;;;;5051392;28;20032;-53
2023/10/23 05:06:58;;;;;;;5.72;2.45;;;24.10;99.90;;;;;;5049357;28;20370;-53
2023/10/23 05:09:24;;;;;;;5.73;2.00;;;24.00;99.90;;;;;;5049968;28;20029;-52
2023/10/23 05:11:50;;;;;;;5.45;1.70;;;24.00;99.90;;;;;;5052270;28;20037;-54
2023/10/23 05:14:16;;;;;;;4.18;1.75;;;24.00;99.90;;;;;;5052104;28;20021;-55
2023/10/23 05:16:42;;;;;;;3.78;1.60;;;24.00;99.90;;;;;;5051213;28;20484;-55
2023/10/23 05:19:08;;;;;;;3.15;1.40;;;24.00;99.90;;;;;;5052437;28;20021;-53
2023/10/23 05:21:34;;;;;;;4.05;1.85;;;24.00;99.90;;;;;;5052089;28;20017;-53
2023/10/23 05:24:00;;;;;;;8.98;2.25;;;24.00;99.90;;;;;;5052013;28;20099;-55
2023/10/23 05:26:26;;;;;;;6.18;1.80;;;24.00;99.90;;;;;;5052118;28;20138;-55
2023/10/23 05:28:53;;;;;;;4.53;1.77;;;24.00;99.90;;;;;;5052046;28;20096;-54
2023/10/23 05:31:19;;;;;;;4.80;1.52;;;24.00;99.90;;;;;;5051768;28;20017;-55
2023/10/23 05:33:45;;;;;;;6.80;2.10;;;24.00;99.90;;;;;;5052008;28;20119;-54
2023/10/23 05:36:11;;;;;;;4.97;2.40;;;24.00;99.90;;;;;;5050923;28;20450;-54
2023/10/23 05:38:38;;;;;;;2.80;1.65;;;24.00;99.90;;;;;;5052049;28;20021;-54
2023/10/23 05:41:07;;;;;;;6.57;2.20;;;24.00;99.90;;;;;;5051921;28;20047;-54
2023/10/23 05:43:33;;;;;;;6.18;2.03;;;24.00;99.90;;;;;;5051980;28;20413;-54
2023/10/23 05:46:02;;;;;;;5.82;2.10;;;23.90;99.90;;;;;;5054114;28;20108;-54
2023/10/23 05:48:28;;;;;;;5.65;2.08;;;24.00;99.90;;;;;;5055834;28;20032;-54
2023/10/23 05:51:04;;;;;;;6.22;2.22;;;24.00;99.90;;;;;;5055649;28;20372;-54
2023/10/23 05:53:31;;;;;;;6.07;2.80;;;24.00;99.90;;;;;;5055693;28;20044;-53
2023/10/23 05:56:06;;;;;;;4.95;2.00;;;23.90;99.90;;;;;;5055644;28;20017;-53
2023/10/23 05:58:33;;;;;;;3.25;1.65;;;24.00;99.90;;;;;;5055556;28;20118;-55
2023/10/23 06:01:12;;;;;;;6.32;2.22;;;23.90;99.90;;;;;;5055431;28;20029;-53
2023/10/23 06:03:38;;;;;;;6.63;1.80;;;23.90;99.90;;;;;;5055445;28;20095;-53
2023/10/23 06:06:04;;;;;;;4.93;2.10;;;23.90;99.90;;;;;;5055315;28;20036;-54
2023/10/23 06:08:30;;;;;;;5.35;1.70;;;23.90;99.90;;;;;;5055639;28;20021;-54
2023/10/23 06:10:56;;;;;;;5.35;1.90;;;24.00;99.90;;;;;;5055447;28;20032;-54
2023/10/23 06:13:22;;;;;;;7.55;2.85;;;23.90;99.90;;;;;;5055396;28;20033;-54
2023/10/23 06:15:48;;;;;;;4.47;2.30;;;23.90;99.90;;;;;;5055212;28;20218;-54
2023/10/23 06:18:14;;;;;;;4.25;2.03;;;23.90;99.90;;;;;;5055254;28;20043;-54
2023/10/23 06:20:40;;;;;;;3.33;1.83;;;23.90;99.90;;;;;;5055393;28;20469;-52
2023/10/23 06:23:06;;;;;;;3.80;1.85;;;23.90;99.90;;;;;;5055042;28;20025;-54
2023/10/23 06:25:32;;;;;;;4.43;2.05;;;23.90;99.90;;;;;;5053871;28;20059;-52
2023/10/23 06:27:58;;;;;;;3.35;1.63;;;23.90;99.90;;;;;;5055069;28;20025;-54
2023/10/23 06:30:24;;;;;;;4.40;2.00;;;23.90;99.90;;;;;;5054928;28;20029;-54
2023/10/23 06:32:50;;;;;;;4.75;2.05;;;23.90;99.90;;;;;;5054803;28;20095;-53
2023/10/23 06:35:16;;;;;;;4.38;2.17;;;23.90;99.90;;;;;;5055026;28;20057;-54
2023/10/23 06:37:42;;;;;;;3.92;1.90;;;23.90;99.90;;;;;;5055111;28;20029;-53
2023/10/23 06:40:08;;;;;;;4.88;1.98;;;23.90;99.90;;;;;;5054767;28;20017;-53
2023/10/23 06:42:34;;;;;;;10.00;2.13;;;23.90;99.90;;;;;;5054853;28;20056;-53
2023/10/23 06:45:00;;;;;;;6.30;2.00;;;23.90;99.90;;;;;;5054777;28;20469;-53
2023/10/23 06:47:27;;;;;;;4.95;2.17;;;23.90;99.90;;;;;;5054721;28;20491;-53
2023/10/23 06:49:52;;;;;;;3.88;2.10;;;23.90;99.90;;;;;;5054639;28;20350;-54
2023/10/23 06:52:18;;;;;;;4.15;1.75;;;23.90;99.90;;;;;;5054633;28;20029;-54
2023/10/23 06:54:44;;;;;;;5.60;2.13;;;23.90;99.90;;;;;;5054715;28;20025;-54
2023/10/23 06:57:10;;;;;;;6.43;2.95;;;23.90;99.90;;;;;;5053307;28;20025;-54
2023/10/23 06:59:36;;;;;;;6.43;2.28;;;23.90;99.90;;;;;;5054298;28;20468;-54
2023/10/23 07:02:02;;;;;;;4.72;2.08;;;23.90;99.90;;;;;;5054085;28;20052;-54
2023/10/23 07:04:28;;;;;;;5.50;2.10;;;23.90;99.90;;;;;;5054351;28;20021;-53
2023/10/23 07:06:55;;;;;;;3.78;2.45;;;23.90;99.90;;;;;;5054170;28;20036;-54
2023/10/23 07:09:21;;;;;;;4.50;1.95;;;23.90;99.90;;;;;;5054170;28;20402;-53
2023/10/23 07:11:51;;;;;;;4.95;2.15;;;23.90;99.90;;;;;;5052741;28;20064;-53
2023/10/23 07:14:18;;;;;;;6.72;3.13;;;23.90;99.90;;;;;;5054056;28;20032;-54
2023/10/23 07:16:45;;;;;;;6.05;2.28;;;23.90;99.90;;;;;;5054388;28;20108;-54
2023/10/23 07:19:11;;;;;;;5.38;2.60;;;23.90;99.90;;;;;;5054129;28;20473;-54
2023/10/23 07:21:37;;;;;;;4.80;2.42;;;23.90;99.90;;;;;;5054063;28;20072;-54
2023/10/23 07:24:04;;;;;;;4.82;2.20;;;23.90;99.90;;;;;;5053910;28;20021;-54
2023/10/23 07:26:30;;;;;;;5.90;2.95;;;23.90;99.90;;;;;;5053994;28;20021;-55
2023/10/23 07:28:55;;;;;;;5.90;2.22;;;23.90;99.90;;;;;;5054323;28;20029;-54
2023/10/23 07:31:21;;;;;;;7.00;2.53;;;23.90;99.90;;;;;;5053823;28;20469;-53
2023/10/23 07:33:48;;;;;;;4.63;2.50;;;23.90;99.90;;;;;;5054154;28;20033;-52
2023/10/23 07:36:14;;;;;;;5.32;2.20;;;23.90;99.90;;;;;;5053891;28;20413;-52
2023/10/23 07:38:44;;;;;;;5.53;2.72;;;23.90;99.90;;;;;;5053733;28;20468;-53
2023/10/23 07:41:11;;;;;;;4.43;1.95;;;23.90;99.90;;;;;;5053786;28;20047;-52
2023/10/23 07:43:38;;;;;;;5.07;2.58;;;23.90;99.90;;;;;;5053458;28;20512;-52
2023/10/23 07:46:10;;;;;;;5.18;2.40;;;23.90;99.90;;;;;;5053560;28;20484;-52
2023/10/23 07:48:37;;;;;;;9.95;2.85;;;23.90;99.90;;;;;;5052274;28;20032;-53
2023/10/23 07:51:06;;;;;;;5.05;2.67;;;23.90;99.90;;;;;;5053379;28;20127;-52
2023/10/23 07:53:33;;;;;;;4.32;2.20;;;23.90;99.90;;;;;;5053289;28;20025;-53
2023/10/23 07:56:05;;;;;;;5.87;2.30;;;23.90;99.90;;;;;;5052149;28;20090;-54
2023/10/23 07:58:31;;;;;;;6.03;2.97;;;23.90;99.90;;;;;;5053285;28;20260;-53
2023/10/23 08:01:04;;;;;;;4.80;2.38;;;23.90;99.90;;;;;;5053054;28;20116;-54
2023/10/23 08:03:30;;;;;;;4.53;2.45;;;23.90;99.90;;;;;;5051847;28;20056;-54
2023/10/23 08:05:56;;;;;;;5.40;2.08;;;23.90;99.90;;;;;;5053033;28;20021;-53
2023/10/23 08:08:22;;;;;;;3.88;2.42;;;23.90;99.90;;;;;;5051573;28;20095;-53
2023/10/23 08:10:47;;;;;;;5.30;1.95;;;23.90;99.90;;;;;;5053194;28;20407;-52
2023/10/23 08:13:13;;;;;;;6.18;2.03;;;23.90;99.90;;;;;;5051777;28;20052;-53
2023/10/23 08:15:41;;;;;;;5.43;2.30;;;23.90;99.90;;;;;;5053159;28;20665;-54
2023/10/23 08:18:07;;;;;;;7.78;2.50;;;23.90;99.90;;;;;;5053017;28;20025;-51
2023/10/23 08:20:35;;;;;;;5.78;2.67;;;23.90;99.90;;;;;;5052944;28;20491;-52
2023/10/23 08:23:01;;;;;;;5.35;2.25;;;23.90;99.90;;;;;;5052860;28;20035;-52
2023/10/23 08:25:27;;;;;;;5.68;2.08;;;23.90;99.90;;;;;;5052732;28;20440;-52
2023/10/23 08:27:52;;;;;;;5.80;2.45;;;23.90;99.90;;;;;;5052689;28;20078;-51
2023/10/23 08:30:18;;;;;;;6.20;2.88;;;23.90;99.90;;;;;;5051638;28;20021;-52
2023/10/23 08:32:44;;;;;;;8.70;3.38;;;23.90;99.90;;;;;;5052604;28;20485;-52
2023/10/23 08:35:10;;;;;;;4.97;2.60;;;23.90;99.90;;;;;;5052516;28;20032;-52
2023/10/23 08:37:36;;;;;;;4.70;2.58;;;23.90;99.90;;;;;;5071802;28;20425;-52
2023/10/23 08:40:06;;;;;;;6.80;2.78;;;23.90;99.90;;;;;;5054600;28;20070;-53
2023/10/23 08:42:35;;;;;;;6.63;2.42;;;23.90;99.90;;;;;;5072554;28;20415;-55
2023/10/23 08:45:02;;;;;;;5.30;2.65;;;24.00;99.90;;;;;;5072494;28;20016;-53
2023/10/23 08:47:28;;;;;;;8.80;2.60;;;23.90;99.90;;;;;;5072576;28;20478;-53
2023/10/23 08:49:56;;;;;;;8.50;2.92;;;23.90;99.90;;;;;;5072331;28;20289;-53
2023/10/23 08:52:25;;;;;;;6.45;2.63;;;23.90;99.90;;;;;;5071755;28;20029;-53
2023/10/23 08:54:54;;;;;;;4.03;1.98;;;23.90;99.90;;;;;;5070531;28;20027;-53
2023/10/23 08:57:20;;;;;;;6.85;2.65;;;23.90;99.90;;;;;;5071826;28;20075;-53
2023/10/23 08:59:46;;;;;;;9.25;2.30;;;23.90;99.90;;;;;;5071607;28;20028;-54
2023/10/23 09:02:13;;;;;;;4.35;2.33;;;24.00;99.90;;;;;;5054065;28;20437;-53
2023/10/23 09:04:38;;;;;;;4.78;2.40;;;23.90;99.90;;;;;;5070612;28;20016;-54
2023/10/23 09:07:04;;;;;;;6.10;2.47;;;24.00;99.90;;;;;;5071484;28;20369;-54
2023/10/23 09:09:30;;;;;;;5.82;2.30;;;23.90;99.90;;;;;;5071569;28;20043;-54
2023/10/23 09:11:57;;;;;;;6.75;2.60;;;23.90;99.90;;;;;;5053309;28;20494;-54
2023/10/23 09:14:28;;;;;;;6.73;2.60;;;24.00;99.90;;;;;;5072013;28;20036;-55
2023/10/23 09:16:56;;;;;;;12.27;3.03;;;23.90;99.90;;;;;;5071933;28;20249;-53
2023/10/23 09:19:37;;;;;;;16.13;3.67;;;23.90;99.90;;;;;;5072842;28;20477;-56
2023/10/23 09:22:04;;;;;;;16.58;4.43;;;23.90;99.90;;;;;;5078685;28;20020;-53
2023/10/23 09:24:30;;;;;;;13.57;3.58;;;23.90;99.90;;;;;;5077028;28;20432;-55
2023/10/23 09:26:57;;;;;;;12.07;3.65;;;23.90;99.90;;;;;;5075068;28;20020;-55
2023/10/23 09:29:24;;;;;;;12.77;3.17;;;23.80;99.90;;;;;;5078940;28;20043;-55
2023/10/23 09:31:50;;;;;;;11.70;2.45;;;23.70;99.90;;;;;;5078682;28;20497;-55
2023/10/23 09:34:21;;;;;;;11.40;2.83;;;23.70;99.90;;;;;;5078335;28;20466;-54
2023/10/23 09:36:50;;;;;;;9.98;3.00;;;23.60;99.90;;;;;;5077450;28;20666;-53
2023/10/23 09:39:17;;;;;;;14.63;3.00;;;23.70;99.90;;;;;;5077524;28;20158;-54
2023/10/23 09:41:44;;;;;;;10.57;3.50;;;23.70;99.90;;;;;;5078481;28;20023;-54
2023/10/23 09:44:13;;;;;;;31.92;6.70;;;23.70;99.90;;;;;;5078070;28;20075;-53
2023/10/23 09:46:41;;;;;;;12.57;3.28;;;23.70;99.90;;;;;;5078272;28;20575;-54
2023/10/23 09:49:09;;;;;;;8.65;3.33;;;23.70;99.90;;;;;;5060346;28;20024;-53
2023/10/23 09:51:39;;;;;;;11.60;3.20;;;23.80;99.90;;;;;;5078390;28;20031;-53
2023/10/23 09:54:20;;;;;;;9.80;3.42;;;23.80;99.90;;;;;;5078272;28;20043;-55
2023/10/23 09:56:53;;;;;;;10.15;3.65;;;23.90;99.90;;;;;;5078254;28;20024;-55
2023/10/23 09:59:29;;;;;;;11.60;3.70;;;23.90;99.90;;;;;;5078298;28;20032;-55
2023/10/23 10:01:59;;;;;;;15.90;3.42;;;23.90;99.90;;;;;;5061106;28;20254;-55
2023/10/23 10:04:52;;;;;;;15.10;3.33;;;23.90;99.90;;;;;;5078290;28;20024;-55
2023/10/23 10:07:45;;;;;;;11.40;3.33;;;24.00;99.90;;;;;;5060040;28;20480;-55
2023/10/23 10:10:12;;;;;;;13.55;3.20;;;24.00;99.90;;;;;;5078143;28;20099;-55
2023/10/23 10:12:39;;;;;;;7.85;3.20;;;24.00;99.90;;;;;;5078090;28;20024;-53
2023/10/23 10:15:11;;;;;;;9.77;3.13;;;24.10;99.90;;;;;;5078121;28;20017;-53
2023/10/23 10:17:39;;;;;;;10.35;3.00;;;24.10;99.90;;;;;;5078027;28;20041;-53
2023/10/23 10:20:08;;;;;;;9.73;2.78;;;24.10;99.90;;;;;;5078124;28;20020;-54
2023/10/23 10:22:41;;;;;;;8.30;2.92;;;24.10;99.90;;;;;;5078183;28;20504;-54
2023/10/23 10:25:09;;;;;;;7.18;3.30;;;24.10;99.90;;;;;;5078233;28;20030;-54
2023/10/23 10:27:35;;;;;;;7.97;2.80;;;24.10;99.90;;;;;;5060225;28;20049;-55
2023/10/23 10:30:05;;;;;;;8.77;3.40;;;24.20;99.90;;;;;;5078137;28;20091;-53
2023/10/23 10:32:33;;;;;;;8.23;2.95;;;24.20;99.90;;;;;;5075377;28;20123;-53
2023/10/23 10:35:03;;;;;;;5.10;2.60;;;24.20;99.90;;;;;;5074965;28;20051;-54
2023/10/23 10:37:31;;;;;;;8.32;3.33;;;24.20;99.90;;;;;;5074722;28;20025;-53
2023/10/23 10:39:58;;;;;;;4.65;2.60;;;24.20;99.90;;;;;;5074837;28;20017;-52
2023/10/23 10:42:28;;;;;;;8.27;2.47;;;24.30;99.90;;;;;;5074903;28;20024;-52
2023/10/23 10:45:02;;;;;;;6.85;2.90;;;24.30;99.90;;;;;;5074748;28;20012;-53
2023/10/23 10:47:39;;;;;;;9.05;2.50;;;24.30;99.90;;;;;;5074467;28;20059;-53
2023/10/23 10:50:05;;;;;;;7.50;2.78;;;24.30;99.90;;;;;;5074584;28;20020;-53
2023/10/23 10:52:36;;;;;;;5.22;2.65;;;24.30;99.90;;;;;;5074609;28;20437;-52
2023/10/23 10:55:20;;;;;;;6.65;2.75;;;24.40;99.90;;;;;;5056534;28;20063;-53
2023/10/23 10:57:46;;;;;;;5.70;2.80;;;24.40;99.90;;;;;;5074461;28;20024;-53
2023/10/23 11:00:13;;;;;;;7.80;3.30;;;24.50;99.90;;;;;;5056455;28;20029;-53
2023/10/23 11:02:39;;;;;;;5.88;2.65;;;24.50;99.90;;;;;;5074169;28;20071;-53
2023/10/23 11:05:09;;;;;;;6.15;3.17;;;24.50;99.90;;;;;;5074258;28;20060;-53
2023/10/23 11:07:35;;;;;;;5.55;3.00;;;24.50;99.90;;;;;;5074200;28;20025;-53
2023/10/23 11:10:02;;;;;;;6.68;2.75;;;24.50;99.90;;;;;;5074079;28;20431;-53
2023/10/23 11:12:29;;;;;;;5.50;3.05;;;24.60;99.90;;;;;;5074224;28;20028;-54
2023/10/23 11:14:54;;;;;;;7.40;2.45;;;24.60;99.90;;;;;;5074316;28;20408;-53
2023/10/23 11:17:20;;;;;;;6.97;2.85;;;24.60;99.90;;;;;;5073942;28;20017;-53
2023/10/23 11:19:47;;;;;;;8.48;2.72;;;24.60;99.90;;;;;;5073993;28;20027;-53
2023/10/23 11:22:14;;;;;;;7.68;2.70;;;24.60;99.90;;;;;;5073854;28;20107;-53
2023/10/23 11:24:40;;;;;;;6.70;2.47;;;24.70;99.90;;;;;;5073964;28;20078;-53
2023/10/23 11:27:07;;;;;;;5.50;2.70;;;24.70;99.90;;;;;;5073914;28;20028;-53
2023/10/23 11:29:48;;;;;;;8.23;3.17;;;24.70;99.90;;;;;;5073842;28;20733;-53
2023/10/23 11:32:15;;;;;;;6.45;2.35;;;24.70;99.90;;;;;;5073680;28;20515;-53
2023/10/23 11:34:41;;;;;;;;;;;24.70;99.90;;;;;;5074269;28;20031;-53
2023/10/23 11:37:09;;;;;;;8.75;2.78;;;24.70;99.90;;;;;;5073743;28;19955;-54
2023/10/23 11:39:36;;;;;;;7.80;2.95;;;24.70;99.90;;;;;;5055704;28;20086;-53
2023/10/23 11:42:03;;;;;;;7.03;2.63;;;24.80;99.90;;;;;;5073713;28;20453;-55
2023/10/23 11:44:31;;;;;;;15.63;2.75;;;24.80;99.90;;;;;;5073225;28;20024;-55
2023/10/23 11:46:58;;;;;;;8.65;2.58;;;24.80;99.90;;;;;;5073719;28;20025;-55
2023/10/23 11:49:24;;;;;;;6.70;2.53;;;24.80;99.90;;;;;;5073240;28;20028;-53
2023/10/23 11:51:56;;;;;;;5.93;2.30;;;24.80;99.90;;;;;;5055494;28;20288;-54
2023/10/23 11:54:24;;;;;;;9.55;3.00;;;24.80;99.90;;;;;;5073327;28;20107;-53
2023/10/23 11:56:50;;;;;;;10.55;3.05;;;24.90;99.90;;;;;;5073293;28;20020;-54
2023/10/23 11:59:21;;;;;;;10.80;2.92;;;24.90;99.90;;;;;;5054827;28;20043;-54
2023/10/23 12:01:47;;;;;;;10.30;3.45;;;24.90;99.90;;;;;;5071776;28;20058;-54
2023/10/23 12:04:14;;;;;;;7.25;2.63;;;25.00;99.90;;;;;;5072795;28;20052;-54
2023/10/23 12:06:40;;;;;;;5.55;2.67;;;25.00;99.90;;;;;;5072628;28;20107;-54
2023/10/23 12:09:09;;;;;;;6.53;2.03;;;25.00;99.90;;;;;;5072224;28;20104;-53
2023/10/23 12:11:35;;;;;;;6.07;1.90;;;25.10;99.90;;;;;;5064208;28;20069;-54
2023/10/23 12:14:02;;;;;;;5.72;1.50;;;25.10;99.90;;;;;;5054245;28;20543;-53
2023/10/23 12:16:29;;;;;;;5.20;1.52;;;25.10;99.90;;;;;;5044003;28;20078;-56
2023/10/23 12:18:55;;;;;;;6.50;1.40;;;25.10;99.90;;;;;;5042974;28;20029;-54
2023/10/23 12:21:20;;;;;;;7.05;1.35;;;25.00;99.90;;;;;;5048193;28;20017;-53
2023/10/23 12:23:47;;;;;;;3.72;1.27;;;25.00;99.90;;;;;;5047131;28;20025;-54
2023/10/23 12:26:13;;;;;;;3.60;1.40;;;24.90;99.90;;;;;;5046083;28;20469;-54
2023/10/23 12:28:39;;;;;;;6.63;2.95;;;24.80;99.90;;;;;;5050589;28;20025;-56
2023/10/23 12:31:05;;;;;;;5.10;2.80;;;24.70;99.90;;;;;;5033247;28;20044;-54
2023/10/23 12:33:31;;;;;;;9.13;4.30;;;24.60;99.90;;;;;;5040035;28;20026;-57
2023/10/23 12:36:00;;;;;;;10.50;2.13;;;24.50;99.90;;;;;;5057774;28;20017;-56
2023/10/23 12:38:27;;;;;;;4.35;1.00;;;24.40;99.90;;;;;;5055587;28;20024;-55
2023/10/23 12:40:53;;;;;;;3.72;1.73;;;24.40;99.90;;;;;;5048914;28;20171;-53
2023/10/23 12:43:18;;;;;;;39.25;2.80;;;24.30;99.90;;;;;;5024524;28;20100;-52
2023/10/23 12:45:45;;;;;;;16.45;2.10;;;24.30;99.90;;;;;;5052165;28;20488;-54